Portada
METAR-TAF:

METAR-TAF

Aeroports :

Loei, Tailàndia

latitud: 17-27N, longitud: 101-44E, altitud: 253 m

Observació

L'informe es va fer fa 59 minuts, a les 07:00 UTC
Vent 2 kt amb direcció variable
Temperatura 36°C
Humitat 47%
Pressió 1008 hPa
Visibilitat 10 km o més
Cel ennuvolat a una alçada de 3000 ft

METAR: VTUL 080700Z VRB02KT 9999 BKN030 36/23 Q1008 NOSIG

Hora: 14:59 (07:59 UTC)

Pronòstic

L'informe es va fer fa 2 hores i 59 minuts, a les 05:00 UTC
Pronòstic vàlid del 08 a les 06 UTC al 09 a les 06 UTC
Vent 3 kt del Oest
Visibilitat 10 km o més
Cel ennuvolat a una alçada de 3000 ft
Evolucionant progressivament
l' 08 a les 22 UTC al 08 a les 24 UTC
Visibilitat: 4500 m
boirina
Evolucionant progressivament
l' 09 a les 00 UTC al 09 a les 02 UTC
Visibilitat: 9000 m

TAF: VTUL 080500Z 0806/0906 28003KT 9999 BKN030 BECMG 0822/0824 4500 BR BECMG 0900/0902 9000 NSW

Observacions i pronòstics meteorològics de més de 4000 aeroports (METAR i TAF).

Les estacions disponibles són els punts grocs i vermells al mapa.

Posi el ratolí al punt desitjat per veure el nom de l'estació.

Feu clic per veure les observacions i els pronòstics meteorològics.

Per canviar el mapa: feu clic els botons verds amb una creu de color negre per apropar; al botó verd amb un guió per allunyar la imatge; o en les fletxes verdes per a mapes adjacents.


METAR-TAF: